Time;durP1;ratioP1;P1;durP2;ratioP2;P2;SDS_P1;SDS_P2;PMS_P1;PMS_P2;Temp;Humidity;BMP_temperature;BMP_pressure;BME280_temperature;BME280_humidity;BME280_pressure;Samples;Min_cycle;Max_cycle;Signal;HPM_P1;HPM_P2
2023/10/13 00:00:40;;;;;;;14.90;9.82;;;16.80;1.00;;;;;;5032684;28;20692;-73
2023/10/13 00:03:14;;;;;;;14.70;8.98;;;16.80;1.00;;;;;;5031586;28;20188;-67
2023/10/13 00:05:43;;;;;;;16.33;10.60;;;16.80;1.00;;;;;;5031240;28;20216;-73
2023/10/13 00:08:13;;;;;;;18.08;11.02;;;16.90;1.00;;;;;;5030280;28;20237;-72
2023/10/13 00:10:42;;;;;;;18.58;10.05;;;16.90;1.00;;;;;;5024113;28;20185;-70
2023/10/13 00:15:57;;;;;;;23.00;11.43;;;17.00;1.00;;;;;;5033603;28;20713;-73
2023/10/13 00:18:33;;;;;;;19.92;9.80;;;17.00;1.00;;;;;;5023275;28;20255;-71
2023/10/13 00:21:12;;;;;;;13.90;9.45;;;17.00;1.00;;;;;;5025371;28;20220;-72
2023/10/13 00:23:53;;;;;;;17.50;9.55;;;17.00;1.00;;;;;;5015507;28;20250;-71
2023/10/13 00:26:27;;;;;;;18.13;10.88;;;17.00;1.00;;;;;;5032263;28;20546;-71
2023/10/13 00:29:02;;;;;;;13.75;8.88;;;16.90;1.00;;;;;;5027247;28;20184;-71
2023/10/13 00:31:36;;;;;;;14.20;9.50;;;16.90;1.00;;;;;;5016299;28;20597;-73
2023/10/13 00:39:30;;;;;;;17.33;9.05;;;16.90;1.00;;;;;;5026279;28;20212;-74
2023/10/13 00:41:59;;;;;;;15.15;8.63;;;16.90;1.00;;;;;;5025642;28;20212;-73
2023/10/13 00:44:37;;;;;;;14.63;8.25;;;17.00;1.00;;;;;;5030307;28;20248;-74
2023/10/13 00:47:07;;;;;;;14.00;9.35;;;17.00;1.00;;;;;;5028409;28;20646;-68
2023/10/13 00:49:39;;;;;;;12.07;8.35;;;17.00;1.00;;;;;;5027986;28;20270;-66
2023/10/13 00:52:09;;;;;;;16.73;9.30;;;17.00;1.00;;;;;;5029213;28;20239;-65
2023/10/13 00:54:37;;;;;;;13.82;8.50;;;17.00;1.00;;;;;;5027381;28;20196;-73
2023/10/13 00:57:11;;;;;;;19.42;9.48;;;17.00;1.00;;;;;;5028245;28;20205;-73
2023/10/13 00:59:41;;;;;;;14.88;9.07;;;17.00;1.00;;;;;;5032572;28;20195;-74
2023/10/13 01:04:54;;;;;;;12.85;8.93;;;16.90;1.00;;;;;;5022951;28;20664;-74
2023/10/13 01:07:22;;;;;;;10.57;7.60;;;16.90;1.00;;;;;;5030594;28;20840;-73
2023/10/13 01:09:50;;;;;;;12.88;9.02;;;16.90;1.00;;;;;;5020889;28;20524;-71
2023/10/13 01:12:18;;;;;;;12.57;8.35;;;16.90;1.00;;;;;;5027280;28;20707;-73
2023/10/13 01:14:46;;;;;;;14.15;8.95;;;16.90;1.00;;;;;;5026927;28;20227;-73
2023/10/13 01:17:13;;;;;;;16.10;8.57;;;16.90;1.00;;;;;;5026133;28;20192;-66
2023/10/13 01:19:45;;;;;;;15.90;8.85;;;16.90;1.00;;;;;;5012946;28;20223;-66
2023/10/13 01:22:12;;;;;;;13.05;8.70;;;16.90;1.00;;;;;;5018635;28;20267;-66
2023/10/13 01:24:39;;;;;;;12.18;8.05;;;16.90;1.00;;;;;;5022119;28;20196;-67
2023/10/13 01:27:17;;;;;;;15.07;8.07;;;16.90;1.00;;;;;;5029652;28;20196;-65
2023/10/13 01:29:53;;;;;;;13.70;8.50;;;16.80;1.00;;;;;;5034695;28;20200;-65
2023/10/13 01:32:22;;;;;;;15.43;7.07;;;16.90;1.00;;;;;;5036706;28;20214;-65
2023/10/13 01:34:55;;;;;;;12.38;8.95;;;16.90;1.00;;;;;;5027324;28;20208;-66
2023/10/13 01:37:23;;;;;;;14.98;8.18;;;16.90;1.00;;;;;;5031137;28;20220;-72
2023/10/13 01:39:59;;;;;;;11.88;8.15;;;17.00;1.00;;;;;;5027953;28;20742;-68
2023/10/13 01:42:28;;;;;;;14.20;8.90;;;16.90;1.00;;;;;;5029574;28;20212;-68
2023/10/13 01:45:09;;;;;;;15.02;7.88;;;17.00;1.00;;;;;;5027100;28;20198;-71
2023/10/13 01:47:50;;;;;;;13.20;7.80;;;17.00;1.00;;;;;;5027022;28;20188;-68
2023/10/13 01:50:28;;;;;;;11.65;7.95;;;17.00;1.00;;;;;;5014122;28;20263;-75
2023/10/13 01:53:11;;;;;;;10.95;7.63;;;17.00;1.00;;;;;;5026242;28;20602;-70
2023/10/13 01:55:43;;;;;;;10.68;7.60;;;17.00;1.00;;;;;;5042882;28;20198;-68
2023/10/13 01:58:22;;;;;;;13.43;7.55;;;17.00;1.00;;;;;;5028733;28;20200;-69
2023/10/13 02:04:55;;;;;;;12.07;6.32;;;17.10;1.00;;;;;;5021747;28;20659;-66
2023/10/13 02:07:26;;;;;;;9.43;6.57;;;17.10;1.00;;;;;;5004328;28;20217;-66
2023/10/13 02:09:54;;;;;;;10.73;7.13;;;17.10;1.00;;;;;;5023018;28;20384;-66
2023/10/13 02:12:27;;;;;;;9.30;7.10;;;17.20;1.00;;;;;;5028566;28;20204;-66
2023/10/13 02:14:54;;;;;;;10.63;5.93;;;17.30;1.00;;;;;;5031098;28;20652;-67
2023/10/13 02:17:26;;;;;;;10.30;6.82;;;17.20;1.00;;;;;;5028722;28;20299;-66
2023/10/13 02:19:54;;;;;;;13.00;6.80;;;17.20;1.00;;;;;;5028695;28;20303;-67
2023/10/13 02:22:31;;;;;;;12.75;7.13;;;17.30;1.00;;;;;;5028010;28;20270;-68
2023/10/13 02:25:05;;;;;;;9.35;5.90;;;17.20;1.00;;;;;;5027064;28;20226;-68
2023/10/13 02:27:40;;;;;;;14.40;6.32;;;17.20;1.00;;;;;;5022402;28;20188;-66
2023/10/13 02:30:14;;;;;;;8.07;6.18;;;17.20;1.00;;;;;;5036867;28;20293;-67
2023/10/13 02:32:43;;;;;;;9.60;6.20;;;17.20;1.00;;;;;;5029347;28;20655;-66
2023/10/13 02:35:15;;;;;;;8.48;6.32;;;17.20;1.00;;;;;;5027777;28;20211;-67
2023/10/13 02:37:54;;;;;;;9.77;6.00;;;17.20;1.00;;;;;;5029443;28;20561;-77
2023/10/13 02:40:23;;;;;;;13.15;7.15;;;17.10;1.00;;;;;;5027136;28;20191;-72
2023/10/13 02:42:50;;;;;;;10.15;6.82;;;17.10;1.00;;;;;;5028550;28;20239;-73
2023/10/13 02:45:25;;;;;;;12.57;6.40;;;17.20;1.00;;;;;;5028147;28;20196;-74
2023/10/13 02:48:10;;;;;;;12.50;6.13;;;17.20;1.00;;;;;;5010099;28;20188;-64
2023/10/13 02:50:43;;;;;;;7.78;6.07;;;17.20;1.00;;;;;;5027909;28;20203;-64
2023/10/13 02:53:13;;;;;;;14.30;7.63;;;17.20;1.00;;;;;;5029136;28;20192;-64
2023/10/13 02:55:51;;;;;;;10.27;6.65;;;17.20;1.00;;;;;;5028734;28;20576;-66
2023/10/13 02:58:20;;;;;;;9.52;6.55;;;17.20;1.00;;;;;;5028521;28;20602;-74
2023/10/13 03:00:54;;;;;;;11.63;6.28;;;17.10;1.00;;;;;;5030062;28;20231;-73
2023/10/13 03:03:23;;;;;;;7.80;6.63;;;17.10;1.00;;;;;;5028495;28;20718;-77
2023/10/13 03:06:05;;;;;;;8.80;5.88;;;17.10;1.00;;;;;;5028775;28;20224;-68
2023/10/13 03:08:43;;;;;;;11.18;6.57;;;17.20;1.00;;;;;;5028572;28;20219;-72
2023/10/13 03:11:13;;;;;;;6.95;5.40;;;17.20;1.00;;;;;;5031840;28;20774;-73
2023/10/13 03:13:44;;;;;;;9.80;6.50;;;17.30;1.00;;;;;;5031199;28;20242;-72
2023/10/13 03:16:16;;;;;;;6.90;5.70;;;17.30;99.90;;;;;;5033295;28;20192;-66
2023/10/13 03:19:07;;;;;;;10.88;6.63;;;17.40;99.90;;;;;;5017246;28;20196;-70
2023/10/13 03:21:44;;;;;;;9.63;5.80;;;17.30;99.90;;;;;;5028143;28;20619;-66
2023/10/13 03:24:34;;;;;;;13.25;5.93;;;17.30;99.90;;;;;;5027895;28;20207;-74
2023/10/13 03:27:17;;;;;;;9.25;5.43;;;17.40;99.90;;;;;;5029235;28;20746;-64
2023/10/13 03:29:54;;;;;;;8.48;6.20;;;17.30;99.90;;;;;;5014951;28;20192;-63
2023/10/13 03:32:22;;;;;;;9.80;6.15;;;17.40;99.90;;;;;;5032121;28;20663;-68
2023/10/13 03:35:10;;;;;;;14.30;6.38;;;17.40;99.90;;;;;;5031983;28;20243;-65
2023/10/13 03:37:38;;;;;;;7.30;5.38;;;17.40;99.90;;;;;;5031053;28;20310;-64
2023/10/13 03:45:42;;;;;;;7.35;5.35;;;17.40;99.90;;;;;;5032022;28;20271;-69
2023/10/13 03:51:07;;;;;;;7.50;4.95;;;17.40;99.90;;;;;;5032593;28;20279;-73
2023/10/13 03:53:54;;;;;;;11.95;7.03;;;17.50;99.90;;;;;;5030833;28;20214;-72
2023/10/13 03:56:27;;;;;;;8.55;5.45;;;17.50;99.90;;;;;;5033276;28;20751;-68
2023/10/13 04:01:58;;;;;;;11.45;5.90;;;17.40;99.90;;;;;;5027754;28;20299;-71
2023/10/13 04:04:36;;;;;;;9.40;5.82;;;17.30;99.90;;;;;;5031614;28;20560;-70
2023/10/13 04:17:33;;;;;;;7.03;5.18;;;17.30;1.00;;;;;;5025404;28;20200;-72
2023/10/13 04:25:38;;;;;;;9.60;6.07;;;17.30;1.00;;;;;;5026895;28;20220;-72
2023/10/13 04:41:42;;;;;;;13.07;6.90;;;16.90;99.90;;;;;;5030382;28;20574;-65
2023/10/13 04:57:34;;;;;;;16.75;6.85;;;16.80;99.90;;;;;;5032567;28;20667;-70
2023/10/13 05:02:54;;;;;;;8.35;6.28;;;16.80;96.30;;;;;;5022505;28;20337;-66
2023/10/13 06:30:06;;;;;;;9.70;5.60;;;17.40;99.90;;;;;;5038905;28;20615;-71
2023/10/13 06:32:33;;;;;;;9.73;5.75;;;17.40;99.90;;;;;;5018847;28;20262;-71
2023/10/13 06:35:34;;;;;;;8.40;5.47;;;17.40;1.00;;;;;;5027247;28;20199;-71
2023/10/13 06:37:53;;;;;;;9.75;4.97;;;17.40;1.00;;;;;;5025252;28;20681;-70
2023/10/13 06:42:55;;;;;;;14.50;5.47;;;17.50;1.00;;;;;;5028157;28;20664;-70
2023/10/13 06:45:23;;;;;;;8.90;4.80;;;17.60;1.00;;;;;;5033282;28;20289;-70
2023/10/13 06:47:53;;;;;;;7.93;4.53;;;17.60;99.90;;;;;;5020856;28;20679;-70
2023/10/13 06:50:24;;;;;;;6.03;4.60;;;17.60;1.00;;;;;;5029814;28;20192;-70
2023/10/13 06:52:54;;;;;;;5.55;3.90;;;17.60;99.90;;;;;;5027683;28;20212;-71
2023/10/13 06:55:28;;;;;;;8.52;5.22;;;17.60;99.90;;;;;;5024416;28;20290;-71
2023/10/13 06:57:59;;;;;;;5.70;4.45;;;17.70;99.90;;;;;;5030901;28;20219;-71
2023/10/13 07:00:29;;;;;;;6.78;4.90;;;17.70;99.90;;;;;;5016769;28;20657;-71
2023/10/13 07:03:05;;;;;;;7.35;4.03;;;17.70;1.00;;;;;;5029332;28;20947;-70
2023/10/13 07:05:48;;;;;;;7.75;4.28;;;17.70;37.90;;;;;;5017667;28;20215;-71
2023/10/13 07:08:23;;;;;;;8.63;4.35;;;17.70;1.00;;;;;;5034306;28;20235;-69
2023/10/13 07:11:08;;;;;;;6.97;4.10;;;17.80;1.00;;;;;;5033991;28;20215;-71
2023/10/13 07:13:53;;;;;;;7.90;3.92;;;17.80;1.00;;;;;;5017937;28;20558;-68
2023/10/13 07:16:23;;;;;;;7.07;4.32;;;17.80;1.00;;;;;;5017145;28;20704;-70
2023/10/13 07:18:54;;;;;;;6.25;4.10;;;17.90;1.00;;;;;;5038174;28;20265;-70
2023/10/13 07:21:33;;;;;;;7.75;4.45;;;17.90;1.00;;;;;;5031444;28;20201;-69
2023/10/13 07:24:16;;;;;;;6.15;3.15;;;17.90;1.00;;;;;;5033353;28;20280;-67
2023/10/13 07:26:45;;;;;;;10.88;5.88;;;18.00;1.00;;;;;;5025217;28;20200;-70
2023/10/13 07:29:16;;;;;;;7.70;5.95;;;18.00;1.00;;;;;;5028686;28;20731;-71
2023/10/13 07:31:56;;;;;;;5.32;3.75;;;18.10;1.00;;;;;;5015222;28;20283;-69
2023/10/13 07:34:26;;;;;;;8.18;4.65;;;18.10;1.00;;;;;;5006856;28;20207;-68
2023/10/13 07:37:08;;;;;;;6.95;3.80;;;18.20;1.00;;;;;;5014694;28;20212;-70
2023/10/13 07:39:40;;;;;;;9.18;3.80;;;18.30;1.00;;;;;;5031209;28;20204;-68
2023/10/13 07:42:15;;;;;;;7.07;3.72;;;18.40;1.00;;;;;;5029790;28;20196;-67
2023/10/13 07:44:45;;;;;;;5.07;3.28;;;18.60;1.00;;;;;;5028882;28;20192;-69
2023/10/13 07:47:14;;;;;;;7.30;3.38;;;18.90;1.00;;;;;;5026171;28;20196;-69
2023/10/13 07:49:41;;;;;;;6.50;3.60;;;19.20;99.90;;;;;;5027190;28;20547;-69
2023/10/13 07:54:49;;;;;;;4.95;3.20;;;19.40;99.90;;;;;;5021963;28;20188;-70
2023/10/13 07:57:17;;;;;;;4.05;2.60;;;19.50;99.90;;;;;;5031285;28;20318;-70
2023/10/13 07:59:53;;;;;;;5.70;2.63;;;19.60;99.90;;;;;;5035283;28;20195;-70
2023/10/13 08:02:48;;;;;;;4.05;2.67;;;19.80;99.90;;;;;;5030174;28;20200;-70
2023/10/13 08:05:14;;;;;;;6.72;2.80;;;19.90;99.90;;;;;;5031347;28;20379;-70
2023/10/13 08:07:41;;;;;;;9.00;3.50;;;19.90;99.90;;;;;;5033304;28;20236;-68
2023/10/13 08:10:10;;;;;;;4.93;2.97;;;19.90;99.90;;;;;;5034688;28;20234;-70
2023/10/13 08:12:37;;;;;;;7.10;3.42;;;20.00;99.90;;;;;;5037049;28;20191;-70
2023/10/13 08:15:32;;;;;;;3.75;3.30;;;19.90;99.90;;;;;;5035992;28;20221;-79
2023/10/13 08:18:17;;;;;;;6.97;3.53;;;19.90;99.90;;;;;;5032229;28;20199;-71
2023/10/13 08:20:47;;;;;;;8.13;3.45;;;20.00;99.90;;;;;;5025738;28;20302;-68
2023/10/13 08:23:20;;;;;;;6.43;2.58;;;20.30;99.90;;;;;;5011381;28;20306;-68
2023/10/13 08:31:29;;;;;;;5.90;2.92;;;20.80;99.90;;;;;;5027937;28;20197;-68
2023/10/13 08:34:15;;;;;;;6.85;3.15;;;20.50;99.90;;;;;;5031314;28;20303;-72
2023/10/13 08:36:43;;;;;;;6.55;3.35;;;20.40;99.90;;;;;;5019474;28;20250;-73
2023/10/13 08:39:57;;;;;;;9.02;3.92;;;20.30;99.90;;;;;;5028805;28;20270;-69
2023/10/13 08:42:17;;;;;;;9.75;3.55;;;20.20;99.90;;;;;;5032500;28;20219;-73
2023/10/13 08:44:52;;;;;;;7.75;3.53;;;20.10;99.90;;;;;;5030191;28;20299;-69
2023/10/13 08:47:24;;;;;;;6.35;2.85;;;20.20;99.90;;;;;;5035147;28;20257;-69
2023/10/13 08:50:06;;;;;;;8.63;3.42;;;21.40;99.90;;;;;;5027147;28;20275;-69
2023/10/13 08:52:49;;;;;;;4.85;2.60;;;23.40;99.90;;;;;;5025167;28;20184;-69
2023/10/13 08:58:13;;;;;;;11.30;3.15;;;24.80;99.90;;;;;;5034230;28;20599;-69
2023/10/13 09:01:11;;;;;;;5.60;3.60;;;23.90;99.90;;;;;;5037129;28;20593;-68
2023/10/13 09:03:43;;;;;;;5.78;2.72;;;23.80;99.90;;;;;;5037801;28;20208;-69
2023/10/13 09:06:19;;;;;;;7.68;2.80;;;25.00;99.90;;;;;;5035086;28;20242;-70
2023/10/13 09:09:06;;;;;;;10.95;3.20;;;25.20;99.90;;;;;;5025693;28;20259;-69
2023/10/13 09:11:51;;;;;;;4.85;2.80;;;24.70;99.90;;;;;;5033385;28;20192;-69
2023/10/13 09:14:33;;;;;;;10.68;2.83;;;24.40;99.90;;;;;;5034657;28;20703;-69
2023/10/13 09:17:12;;;;;;;9.93;4.05;;;23.60;99.90;;;;;;5034652;28;20563;-70
2023/10/13 09:19:57;;;;;;;7.90;3.90;;;24.10;99.90;;;;;;5030377;28;20219;-70
2023/10/13 09:22:35;;;;;;;5.50;3.28;;;24.40;99.90;;;;;;5014002;28;20299;-73
2023/10/13 09:25:13;;;;;;;6.20;3.20;;;25.70;99.90;;;;;;5035697;28;20556;-69
2023/10/13 09:27:40;;;;;;;12.18;4.35;;;26.50;99.90;;;;;;5032398;28;20203;-69
2023/10/13 09:30:23;;;;;;;7.90;4.47;;;26.40;99.90;;;;;;5032013;28;20184;-69
2023/10/13 09:33:01;;;;;;;17.42;6.82;;;26.80;99.90;;;;;;5031278;28;20283;-70
2023/10/13 09:35:36;;;;;;;12.80;5.43;;;26.30;99.90;;;;;;5025739;28;20268;-73
2023/10/13 09:38:04;;;;;;;15.57;4.45;;;25.20;99.90;;;;;;5029167;28;20610;-69
2023/10/13 09:40:38;;;;;;;12.77;3.95;;;26.50;99.90;;;;;;5033806;28;20181;-74
2023/10/13 09:43:08;;;;;;;8.82;4.30;;;26.70;99.90;;;;;;5019774;28;20255;-71
2023/10/13 09:46:01;;;;;;;13.57;5.63;;;28.10;99.90;;;;;;5027060;28;20224;-72
2023/10/13 09:49:04;;;;;;;10.75;5.05;;;28.40;99.90;;;;;;5026842;28;20195;-73
2023/10/13 09:51:34;;;;;;;9.85;5.20;;;29.30;99.90;;;;;;5032157;28;20211;-71
2023/10/13 09:54:16;;;;;;;8.02;3.58;;;28.60;99.90;;;;;;5024938;28;20211;-71
2023/10/13 09:57:24;;;;;;;8.63;3.53;;;29.20;99.90;;;;;;5029951;28;20653;-71
2023/10/13 10:00:05;;;;;;;7.78;2.97;;;27.60;99.90;;;;;;5035269;28;20200;-73
2023/10/13 10:02:43;;;;;;;8.00;4.18;;;27.70;99.90;;;;;;5037324;28;20238;-70
2023/10/13 10:05:22;;;;;;;13.43;3.72;;;27.00;99.90;;;;;;5029158;28;20343;-71
2023/10/13 10:07:58;;;;;;;8.30;3.80;;;28.10;99.90;;;;;;5033346;28;20224;-70
2023/10/13 10:10:56;;;;;;;8.88;3.72;;;28.90;99.90;;;;;;5035460;28;20613;-73
2023/10/13 10:13:35;;;;;;;8.00;3.30;;;29.50;99.90;;;;;;5027137;28;20196;-74
2023/10/13 10:16:14;;;;;;;10.02;3.40;;;30.00;99.90;;;;;;5032052;28;20200;-72
2023/10/13 10:18:42;;;;;;;8.73;4.25;;;29.10;99.90;;;;;;5035486;28;20204;-72
2023/10/13 10:21:10;;;;;;;7.90;4.18;;;29.00;99.90;;;;;;5027131;28;20663;-72
2023/10/13 10:23:43;;;;;;;7.05;3.65;;;29.00;99.90;;;;;;5031566;28;20212;-73
2023/10/13 10:26:16;;;;;;;7.50;3.50;;;29.90;99.90;;;;;;5035016;28;20769;-73
2023/10/13 10:28:43;;;;;;;9.63;3.97;;;29.30;99.90;;;;;;5022772;28;20597;-73
2023/10/13 10:31:19;;;;;;;11.43;3.47;;;28.90;99.90;;;;;;5033614;28;20246;-72
2023/10/13 10:33:50;;;;;;;14.30;3.95;;;29.70;99.90;;;;;;5027930;28;20687;-73
2023/10/13 10:36:29;;;;;;;6.13;3.97;;;29.60;99.90;;;;;;5019820;28;20564;-72
2023/10/13 10:39:03;;;;;;;8.27;3.72;;;29.70;99.90;;;;;;5023455;28;20286;-73
2023/10/13 10:44:23;;;;;;;9.70;4.22;;;30.20;99.90;;;;;;5027358;28;20488;-74
2023/10/13 10:47:08;;;;;;;7.35;3.58;;;31.00;99.90;;;;;;5032967;28;20192;-72
2023/10/13 10:49:38;;;;;;;11.65;4.78;;;30.70;99.90;;;;;;5029146;28;20188;-72
2023/10/13 10:52:14;;;;;;;10.82;3.70;;;30.40;99.90;;;;;;5033187;28;20196;-72
2023/10/13 10:54:44;;;;;;;13.43;4.25;;;29.40;99.90;;;;;;5028044;28;20200;-72
2023/10/13 10:57:12;;;;;;;6.90;4.10;;;28.80;99.90;;;;;;5004800;28;20672;-71
2023/10/13 10:59:39;;;;;;;7.95;3.83;;;27.50;99.90;;;;;;5030694;28;20617;-72
2023/10/13 11:02:15;;;;;;;11.93;4.95;;;26.60;99.90;;;;;;5031509;28;20205;-75
2023/10/13 11:04:51;;;;;;;10.02;4.32;;;25.80;99.90;;;;;;5026918;28;20382;-71
2023/10/13 11:07:23;;;;;;;7.38;3.90;;;26.30;99.90;;;;;;5034211;28;20220;-71
2023/10/13 11:10:06;;;;;;;6.80;3.90;;;26.20;99.90;;;;;;5026169;28;20286;-71
2023/10/13 11:12:36;;;;;;;11.57;3.60;;;25.90;99.90;;;;;;5032548;28;20246;-71
2023/10/13 11:15:21;;;;;;;9.77;4.05;;;25.80;99.90;;;;;;5033866;28;20199;-71
2023/10/13 11:17:56;;;;;;;11.77;4.40;;;25.40;99.90;;;;;;5032278;28;20288;-71
2023/10/13 11:20:33;;;;;;;10.07;4.32;;;25.30;99.90;;;;;;5028441;28;20231;-71
2023/10/13 11:23:04;;;;;;;6.85;4.15;;;25.20;99.90;;;;;;5029931;28;20549;-70
2023/10/13 11:25:35;;;;;;;9.10;4.32;;;25.30;99.90;;;;;;5034104;28;20200;-73
2023/10/13 11:28:27;;;;;;;13.63;4.88;;;25.20;99.90;;;;;;5032523;28;20283;-70
2023/10/13 11:31:10;;;;;;;11.48;3.90;;;25.00;99.90;;;;;;5031495;28;20299;-71
2023/10/13 11:33:46;;;;;;;8.80;4.50;;;25.00;99.90;;;;;;5034034;28;20652;-71
2023/10/13 11:36:22;;;;;;;13.35;4.50;;;25.40;99.90;;;;;;5010269;28;20206;-71
2023/10/13 11:38:51;;;;;;;5.85;3.92;;;25.20;99.90;;;;;;5025953;28;20660;-73
2023/10/13 11:41:19;;;;;;;10.23;5.00;;;25.10;99.90;;;;;;5032970;28;20188;-73
2023/10/13 11:51:48;;;;;;;16.60;4.32;;;25.50;99.90;;;;;;5025260;28;20209;-71
2023/10/13 11:54:21;;;;;;;17.08;4.13;;;25.70;99.90;;;;;;5019342;28;20199;-70
2023/10/13 11:56:50;;;;;;;7.93;3.90;;;25.20;99.90;;;;;;5025175;28;20683;-71
2023/10/13 11:59:17;;;;;;;11.70;5.18;;;25.20;99.90;;;;;;5027314;28;20636;-72
2023/10/13 12:04:48;;;;;;;10.23;4.32;;;26.00;99.90;;;;;;5022216;28;20230;-73
2023/10/13 12:12:31;;;;;;;13.02;4.78;;;25.80;99.90;;;;;;5022616;28;20365;-72
2023/10/13 12:15:08;;;;;;;12.93;4.30;;;26.20;99.90;;;;;;5025929;28;20253;-71
2023/10/13 12:17:36;;;;;;;10.88;4.40;;;26.50;99.90;;;;;;5024509;28;20557;-74
2023/10/13 12:20:09;;;;;;;9.10;3.97;;;26.60;99.90;;;;;;5019364;28;20277;-70
2023/10/13 12:22:42;;;;;;;13.43;3.97;;;26.30;99.90;;;;;;5023891;28;20239;-71
2023/10/13 12:25:25;;;;;;;8.93;4.15;;;26.40;99.90;;;;;;5025363;28;20212;-71
2023/10/13 12:27:59;;;;;;;11.70;4.95;;;26.30;99.90;;;;;;5023723;28;20299;-71
2023/10/13 12:30:36;;;;;;;8.63;4.18;;;26.40;99.90;;;;;;5024274;28;20187;-71
2023/10/13 12:33:09;;;;;;;9.45;4.72;;;26.30;99.90;;;;;;5027553;28;20196;-71
2023/10/13 12:38:51;;;;;;;8.43;4.75;;;25.90;99.90;;;;;;4991989;28;20216;-71
2023/10/13 12:52:31;;;;;;;10.23;4.55;;;25.80;99.90;;;;;;5030824;28;20192;-72
2023/10/13 12:55:05;;;;;;;9.63;4.57;;;25.50;99.90;;;;;;5030572;28;20192;-73
2023/10/13 12:57:33;;;;;;;9.98;4.32;;;25.60;99.90;;;;;;5032702;28;20196;-73
2023/10/13 13:00:02;;;;;;;8.98;4.78;;;25.30;99.90;;;;;;5033831;28;20215;-73
2023/10/13 13:02:29;;;;;;;10.00;4.95;;;25.10;99.90;;;;;;5031292;28;20270;-73
2023/10/13 13:05:05;;;;;;;11.73;4.65;;;25.20;99.90;;;;;;5033260;28;20216;-72
2023/10/13 13:07:43;;;;;;;9.68;3.97;;;25.00;99.90;;;;;;5035687;28;20212;-71
2023/10/13 13:10:12;;;;;;;8.35;4.13;;;25.10;99.90;;;;;;5028868;28;20703;-72
2023/10/13 13:12:40;;;;;;;15.00;4.57;;;25.00;99.90;;;;;;5029893;28;20204;-71
2023/10/13 13:15:08;;;;;;;16.15;6.35;;;24.90;99.90;;;;;;5032411;28;20748;-71
2023/10/13 13:17:36;;;;;;;9.05;5.05;;;24.60;99.90;;;;;;5034094;28;20211;-72
2023/10/13 13:20:11;;;;;;;13.35;4.95;;;24.60;99.90;;;;;;5033187;28;20192;-73
2023/10/13 13:22:38;;;;;;;7.80;4.35;;;24.70;99.90;;;;;;5030574;28;20195;-71
2023/10/13 13:25:08;;;;;;;11.00;4.72;;;24.80;99.90;;;;;;5029583;28;20207;-71
2023/10/13 13:27:41;;;;;;;9.93;4.90;;;24.80;99.90;;;;;;5029242;28;20212;-71
2023/10/13 13:30:12;;;;;;;10.20;5.03;;;24.60;99.90;;;;;;5036102;28;20291;-71
2023/10/13 13:32:45;;;;;;;8.40;4.30;;;24.50;99.90;;;;;;5030501;28;20204;-71
2023/10/13 13:35:18;;;;;;;12.18;5.82;;;24.70;99.90;;;;;;5033300;28;20742;-71
2023/10/13 13:37:45;;;;;;;7.07;4.50;;;24.70;99.90;;;;;;5027277;28;20191;-71
2023/10/13 13:40:16;;;;;;;10.90;4.35;;;24.70;99.90;;;;;;5027865;28;20292;-71
2023/10/13 13:42:43;;;;;;;10.80;4.82;;;24.80;99.90;;;;;;5027629;28;20203;-71
2023/10/13 13:45:22;;;;;;;12.20;4.13;;;24.60;99.90;;;;;;5025546;28;20326;-71
2023/10/13 13:47:53;;;;;;;9.05;4.00;;;24.40;99.90;;;;;;5028137;28;20184;-75
2023/10/13 13:50:26;;;;;;;9.23;4.32;;;24.40;99.90;;;;;;5013960;28;20192;-72
2023/10/13 13:52:57;;;;;;;22.40;4.43;;;24.40;99.90;;;;;;5029109;28;20818;-69
2023/10/13 13:55:28;;;;;;;10.85;4.32;;;24.30;99.90;;;;;;5027430;28;20230;-70
2023/10/13 13:57:57;;;;;;;8.85;4.07;;;24.40;99.90;;;;;;5027688;28;20236;-69
2023/10/13 14:00:48;;;;;;;7.97;4.20;;;24.40;99.90;;;;;;5029774;28;20205;-71
2023/10/13 14:03:33;;;;;;;6.00;3.92;;;24.50;99.90;;;;;;5027825;28;20200;-77
2023/10/13 14:06:01;;;;;;;8.77;4.38;;;24.50;99.90;;;;;;5020840;28;20238;-67
2023/10/13 14:08:28;;;;;;;11.50;4.35;;;24.50;99.90;;;;;;5019095;28;20312;-73
2023/10/13 14:11:13;;;;;;;9.43;4.47;;;24.30;99.90;;;;;;5036213;28;20192;-72
2023/10/13 14:13:49;;;;;;;8.77;4.43;;;24.20;99.90;;;;;;5017513;28;20192;-72
2023/10/13 14:16:19;;;;;;;7.50;4.60;;;24.20;99.90;;;;;;5036926;28;20199;-73
2023/10/13 14:18:47;;;;;;;9.80;3.90;;;24.20;99.90;;;;;;5025300;28;20200;-71
2023/10/13 14:21:24;;;;;;;9.70;4.22;;;24.20;99.90;;;;;;5019116;28;20208;-72
2023/10/13 14:23:55;;;;;;;9.88;4.25;;;24.00;99.90;;;;;;5018994;28;20195;-74
2023/10/13 14:26:25;;;;;;;7.10;4.35;;;24.00;99.90;;;;;;5009830;28;20203;-74
2023/10/13 14:29:05;;;;;;;13.23;4.60;;;24.00;99.90;;;;;;5008628;28;20733;-77
2023/10/13 14:31:33;;;;;;;9.57;5.13;;;23.90;99.90;;;;;;5025784;28;20638;-76
2023/10/13 14:34:01;;;;;;;9.70;4.70;;;23.80;99.90;;;;;;5024063;28;20199;-75
2023/10/13 14:36:28;;;;;;;9.40;4.25;;;23.80;99.90;;;;;;5027512;28;20200;-72
2023/10/13 14:38:56;;;;;;;8.55;4.28;;;23.80;99.90;;;;;;5005074;28;20292;-72
2023/10/13 14:41:23;;;;;;;10.93;4.47;;;23.80;99.90;;;;;;5024438;28;20227;-73
2023/10/13 14:43:51;;;;;;;9.25;4.10;;;23.80;99.90;;;;;;5030178;28;20203;-72
2023/10/13 14:46:22;;;;;;;9.45;3.80;;;23.80;99.90;;;;;;5024258;28;20269;-71
2023/10/13 14:48:53;;;;;;;9.98;4.30;;;23.80;99.90;;;;;;5027171;28;20196;-73
2023/10/13 14:51:20;;;;;;;13.82;4.20;;;23.80;99.90;;;;;;5023823;28;20946;-71
2023/10/13 14:53:48;;;;;;;8.68;4.75;;;23.80;99.90;;;;;;5025904;28;20204;-73
2023/10/13 14:56:19;;;;;;;16.95;4.40;;;23.80;99.90;;;;;;5029759;28;21165;-73
2023/10/13 14:58:46;;;;;;;9.82;3.63;;;23.70;99.90;;;;;;5026359;28;20212;-72
2023/10/13 15:01:19;;;;;;;10.45;4.97;;;23.60;99.90;;;;;;5032742;28;20659;-72
2023/10/13 15:03:58;;;;;;;6.13;3.63;;;23.60;99.90;;;;;;5028229;28;20511;-74
2023/10/13 15:06:30;;;;;;;10.60;4.57;;;23.60;99.90;;;;;;5029254;28;20302;-72
2023/10/13 15:08:58;;;;;;;10.52;4.63;;;23.70;99.90;;;;;;5023222;28;20220;-72
2023/10/13 15:11:37;;;;;;;15.98;4.40;;;23.60;99.90;;;;;;5005226;28;20255;-72
2023/10/13 15:14:15;;;;;;;15.07;4.28;;;23.60;99.90;;;;;;5020771;28;20201;-72
2023/10/13 15:16:42;;;;;;;10.43;4.10;;;23.50;99.90;;;;;;5022081;28;20226;-72
2023/10/13 15:19:11;;;;;;;8.40;4.20;;;23.50;99.90;;;;;;5025613;28;20189;-71
2023/10/13 15:21:40;;;;;;;7.43;3.88;;;23.50;99.90;;;;;;5015163;28;20245;-70
2023/10/13 15:24:14;;;;;;;9.00;4.18;;;23.40;99.90;;;;;;5019183;28;20193;-70
2023/10/13 15:26:47;;;;;;;11.82;4.10;;;23.40;99.90;;;;;;5016152;28;20223;-72
2023/10/13 15:29:24;;;;;;;8.35;4.28;;;23.30;99.90;;;;;;5020031;28;20201;-72
2023/10/13 15:34:29;;;;;;;9.02;3.88;;;23.30;99.90;;;;;;5017772;28;20639;-75
2023/10/13 15:36:58;;;;;;;15.50;3.85;;;23.20;99.90;;;;;;5031951;28;20598;-70
2023/10/13 15:39:31;;;;;;;8.85;3.75;;;23.10;99.90;;;;;;4998564;28;20200;-70
2023/10/13 15:41:58;;;;;;;9.80;4.10;;;23.10;99.90;;;;;;5030872;28;20683;-72
2023/10/13 15:44:29;;;;;;;12.95;4.53;;;23.10;99.90;;;;;;5018655;28;20267;-73
2023/10/13 15:46:59;;;;;;;9.10;3.63;;;23.10;99.90;;;;;;5044352;28;20599;-74
2023/10/13 15:49:33;;;;;;;8.27;3.85;;;23.00;99.90;;;;;;5028007;28;20195;-72
2023/10/13 15:52:01;;;;;;;11.18;4.32;;;22.90;99.90;;;;;;5011780;28;20196;-71
2023/10/13 15:54:28;;;;;;;6.47;4.18;;;22.90;99.90;;;;;;5031263;28;20198;-71
2023/10/13 15:56:55;;;;;;;9.98;4.20;;;22.80;99.90;;;;;;5031034;28;20223;-72
2023/10/13 15:59:23;;;;;;;8.98;3.83;;;22.80;99.90;;;;;;5027781;28;20195;-72
2023/10/13 16:01:56;;;;;;;10.25;3.95;;;22.80;99.90;;;;;;5048315;28;20208;-70
2023/10/13 16:04:23;;;;;;;12.73;4.55;;;22.80;99.90;;;;;;5025858;28;20192;-73
2023/10/13 16:06:51;;;;;;;10.82;4.65;;;22.80;99.90;;;;;;5029203;28;20318;-71
2023/10/13 16:09:25;;;;;;;12.00;4.72;;;22.70;99.90;;;;;;5020037;28;20251;-71
2023/10/13 16:11:53;;;;;;;13.35;3.78;;;22.70;99.90;;;;;;5032072;28;20199;-70
2023/10/13 16:14:21;;;;;;;9.07;3.50;;;22.70;99.90;;;;;;5028746;28;20203;-72
2023/10/13 16:16:52;;;;;;;8.90;3.45;;;22.70;99.90;;;;;;5024177;28;20595;-69
2023/10/13 16:19:21;;;;;;;13.57;4.22;;;22.70;99.90;;;;;;5024968;28;20192;-69
2023/10/13 16:21:50;;;;;;;7.88;4.75;;;22.70;99.90;;;;;;5028814;28;20219;-72
2023/10/13 16:24:17;;;;;;;15.02;4.15;;;22.60;99.90;;;;;;5024310;28;20298;-74
2023/10/13 16:26:49;;;;;;;14.95;4.25;;;22.60;99.90;;;;;;5037022;28;20224;-70
2023/10/13 16:29:17;;;;;;;10.98;4.05;;;22.60;99.90;;;;;;5027108;28;20199;-70
2023/10/13 16:31:45;;;;;;;9.20;4.30;;;22.60;99.90;;;;;;5023871;28;20279;-70
2023/10/13 16:34:15;;;;;;;11.02;4.10;;;22.60;99.90;;;;;;5021646;28;20212;-72
2023/10/13 16:36:44;;;;;;;11.73;3.88;;;22.60;99.90;;;;;;5031667;28;20290;-71
2023/10/13 16:39:15;;;;;;;16.38;4.10;;;22.50;99.90;;;;;;5027431;28;20211;-71
2023/10/13 16:41:45;;;;;;;8.20;3.83;;;22.50;99.90;;;;;;5011899;28;20582;-72
2023/10/13 16:44:13;;;;;;;11.70;4.22;;;22.40;99.90;;;;;;5025176;28;20723;-71